Date,TemperatureHighF,TemperatureAvgF,TemperatureLowF,DewpointHighF,DewpointAvgF,DewpointLowF,HumidityHigh,HumidityAvg,HumidityLow,PressureMaxIn,PressureMinIn,WindSpeedMaxMPH,WindSpeedAvgMPH,GustSpeedMaxMPH,PrecipitationSumIn
2013-1-1,28,26,25,19,17,15,73,70,64,0.00,40.00,2,0,2,0.00
2013-1-2,25,24,23,19,17,14,82,73,64,0.00,40.00,2,1,2,0.00
2013-1-3,23,22,20,18,16,15,87,79,72,0.00,40.00,2,1,2,0.00
2013-1-4,26,24,22,24,22,18,93,89,83,0.00,40.00,0,0,2,0.00
2013-1-5,30,27,24,27,24,22,94,88,77,0.00,40.00,2,1,2,0.00
2013-1-6,34,30,27,28,25,24,95,82,66,0.00,40.00,2,1,2,0.00
2013-1-7,35,33,31,34,31,25,100,93,69,0.00,40.00,2,0,2,0.00
2013-1-8,37,35,31,34,28,19,100,78,54,0.00,40.00,2,1,7,0.00
2013-1-9,45,41,36,38,33,29,98,75,54,0.00,40.00,2,2,4,0.00
2013-1-10,37,29,23,34,26,13,100,88,63,0.00,40.00,4,2,4,0.00
2013-1-11,23,20,17,14,8,5,68,59,50,0.00,40.00,4,2,4,0.00
2013-1-12,20,18,16,16,13,7,91,80,63,0.00,40.00,2,1,2,0.00
2013-1-13,18,17,15,15,13,12,91,84,77,0.00,40.00,2,1,2,0.00
2013-1-14,18,17,17,13,13,12,83,81,77,0.00,40.00,0,0,2,0.00
2013-1-16,32,28,27,28,27,25,98,93,78,0.00,40.00,2,1,2,0.00
2013-1-17,30,28,25,29,27,25,99,96,94,0.00,40.00,2,0,2,0.00
2013-1-18,43,36,27,27,23,19,97,62,44,0.00,40.00,2,1,2,0.00
2013-1-19,36,31,26,27,25,18,89,78,48,0.00,40.00,2,1,2,0.00
2013-1-20,32,28,24,28,24,22,95,84,73,0.00,40.00,2,1,2,0.00
2013-1-21,32,29,27,28,26,24,93,86,73,0.00,40.00,2,0,2,0.00
2013-1-22,28,24,21,26,23,21,100,95,90,0.00,40.00,2,0,2,0.00
2013-1-23,29,27,24,29,26,24,99,95,91,0.00,40.00,2,0,2,0.00
2013-1-24,43,37,29,33,27,22,99,68,50,0.00,40.00,2,2,2,0.00
2013-1-25,44,38,34,35,30,24,79,72,64,0.00,40.00,2,1,2,0.00
2013-1-28,33,30,27,28,26,23,99,86,67,0.00,40.00,2,2,4,0.00
2013-1-29,28,27,26,26,24,20,97,89,76,0.00,40.00,2,1,2,0.00
2013-1-30,39,34,28,29,27,24,88,73,60,0.00,40.00,4,2,4,0.00
2013-1-31,40,39,38,33,31,28,80,74,67,0.00,40.00,2,2,4,0.00